Sanger, Texas
Current Conditions -  °F | °C
As of 8:53 PM on Saturday 25 Oct 2014 (Local Time) from KDTO Reporting Station
Clear Clear  
Wind Chill: 72°   Ceiling: Unl
Heat Index: 72°   Visibility: 10mi
Dew Point: 60°   Wind: 6mph
Humidity: 66%   Direction: 160°SSE
Pressure: 30.04"   Gusts: NA
Location:  33.36°N, 97.17°W
Report Text: KDTO 260153Z 16005KT 10SM CLR 22/16 A3004 RMK AO2 SLP167 T02220156
Loading
Personal Weather Stations






























Interactive Weather Map
Tropical Storm Tracking
New forecast layout! Learn more

10-Day Weather Forecast

Advertisements
Track Severe Weather on mobile